createdAt,value
2023-04-16T00:02:19.926Z,100.00
2023-04-16T00:05:22.508Z,100.00
2023-04-16T00:08:25.190Z,100.00
2023-04-16T00:11:27.569Z,100.00
2023-04-16T00:14:30.570Z,100.00
2023-04-16T00:17:33.123Z,100.00
2023-04-16T00:20:35.849Z,100.00
2023-04-16T00:23:38.492Z,100.00
2023-04-16T00:26:41.256Z,100.00
2023-04-16T00:29:43.600Z,100.00
2023-04-16T00:32:46.554Z,100.00
2023-04-16T00:35:49.361Z,100.00
2023-04-16T00:38:52.103Z,100.00
2023-04-16T00:41:54.693Z,100.00
2023-04-16T00:44:57.332Z,100.00
2023-04-16T00:48:00.622Z,100.00
2023-04-16T00:51:05.966Z,100.00
2023-04-16T00:54:08.960Z,100.00
2023-04-16T00:57:14.489Z,100.00
2023-04-16T01:00:17.184Z,100.00
2023-04-16T01:03:20.116Z,100.00
2023-04-16T01:06:24.018Z,100.00
2023-04-16T01:09:26.767Z,100.00
2023-04-16T01:12:29.199Z,100.00
2023-04-16T01:15:32.029Z,100.00
2023-04-16T01:18:34.997Z,100.00
2023-04-16T01:21:37.749Z,100.00
2023-04-16T01:24:40.660Z,100.00
2023-04-16T01:27:49.977Z,100.00
2023-04-16T01:30:52.401Z,100.00
2023-04-16T01:34:24.420Z,100.00
2023-04-16T01:37:27.223Z,100.00
2023-04-16T01:40:30.125Z,100.00
2023-04-16T01:43:32.598Z,100.00
2023-04-16T01:46:36.262Z,100.00
2023-04-16T01:49:38.788Z,100.00
2023-04-16T01:52:42.118Z,100.00
2023-04-16T01:55:44.567Z,100.00
2023-04-16T01:58:47.610Z,100.00
2023-04-16T02:01:52.308Z,100.00
2023-04-16T02:04:56.543Z,100.00
2023-04-16T02:07:58.976Z,100.00
2023-04-16T02:11:02.165Z,100.00
2023-04-16T02:14:04.934Z,100.00
2023-04-16T02:17:10.106Z,100.00
2023-04-16T02:20:15.100Z,100.00
2023-04-16T02:23:28.390Z,100.00
2023-04-16T02:26:33.439Z,100.00
2023-04-16T02:29:41.862Z,100.00
2023-04-16T02:32:49.933Z,100.00
2023-04-16T02:35:53.686Z,100.00
2023-04-16T02:38:56.221Z,100.00
2023-04-16T02:42:00.826Z,100.00
2023-04-16T02:45:03.439Z,100.00
2023-04-16T02:48:07.644Z,100.00
2023-04-16T02:51:10.173Z,100.00
2023-04-16T02:54:12.765Z,100.00
2023-04-16T02:57:15.126Z,100.00
2023-04-16T03:00:18.016Z,100.00
2023-04-16T03:03:21.534Z,100.00
2023-04-16T03:06:24.381Z,100.00
2023-04-16T03:09:27.262Z,100.00
2023-04-16T03:12:29.918Z,100.00
2023-04-16T03:15:32.457Z,100.00
2023-04-16T03:18:35.238Z,100.00
2023-04-16T03:21:37.585Z,100.00
2023-04-16T03:24:40.212Z,100.00
2023-04-16T03:27:43.033Z,100.00
2023-04-16T03:30:53.934Z,100.00
2023-04-16T03:33:56.302Z,100.00
2023-04-16T03:36:59.149Z,100.00
2023-04-16T03:40:01.895Z,100.00
2023-04-16T03:43:05.042Z,100.00
2023-04-16T03:46:08.590Z,100.00
2023-04-16T03:49:11.796Z,100.00
2023-04-16T03:52:14.501Z,100.00
2023-04-16T03:55:17.518Z,100.00
2023-04-16T03:58:21.295Z,100.00
2023-04-16T04:01:24.124Z,100.00
2023-04-16T04:04:27.942Z,100.00
2023-04-16T04:07:30.676Z,100.00
2023-04-16T04:10:36.737Z,100.00
2023-04-16T04:13:41.093Z,100.00
2023-04-16T04:16:43.823Z,100.00
2023-04-16T04:20:00.157Z,100.00
2023-04-16T04:23:05.285Z,100.00
2023-04-16T04:26:08.212Z,100.00
2023-04-16T04:29:11.318Z,100.00
2023-04-16T04:32:17.064Z,100.00
2023-04-16T04:35:21.793Z,100.00
2023-04-16T04:38:25.628Z,100.00
2023-04-16T04:41:28.933Z,100.00
2023-04-16T04:44:31.861Z,100.00
2023-04-16T04:47:34.491Z,100.00
2023-04-16T04:50:37.257Z,100.00
2023-04-16T04:53:39.804Z,100.00
2023-04-16T04:56:42.469Z,100.00
2023-04-16T04:59:44.878Z,100.00
2023-04-16T05:02:49.866Z,100.00
2023-04-16T05:05:52.415Z,100.00
2023-04-16T05:08:55.547Z,100.00
2023-04-16T05:11:57.979Z,100.00
2023-04-16T05:15:00.811Z,100.00
2023-04-16T05:18:03.325Z,100.00
2023-04-16T05:21:06.251Z,100.00
2023-04-16T05:24:08.696Z,100.00
2023-04-16T05:27:11.448Z,100.00
2023-04-16T05:30:13.884Z,100.00
2023-04-16T05:33:16.749Z,100.00
2023-04-16T05:36:19.150Z,100.00
2023-04-16T05:39:21.896Z,100.00
2023-04-16T05:42:24.227Z,100.00
2023-04-16T05:45:28.022Z,100.00
2023-04-16T05:48:30.669Z,100.00
2023-04-16T05:51:33.510Z,100.00
2023-04-16T05:54:35.952Z,100.00
2023-04-16T05:57:38.838Z,100.00
2023-04-16T06:00:41.259Z,100.00
2023-04-16T06:03:44.789Z,100.00
2023-04-16T06:06:48.330Z,100.00
2023-04-16T06:09:51.075Z,100.00
2023-04-16T06:12:53.614Z,100.00
2023-04-16T06:15:56.263Z,100.00
2023-04-16T06:18:58.666Z,100.00
2023-04-16T06:22:01.381Z,100.00
2023-04-16T06:25:04.298Z,100.00
2023-04-16T06:28:07.076Z,100.00
2023-04-16T06:31:09.475Z,100.00
2023-04-16T06:34:12.325Z,100.00
2023-04-16T06:37:14.945Z,100.00
2023-04-16T06:40:17.808Z,100.00
2023-04-16T06:43:20.291Z,100.00
2023-04-16T06:46:23.061Z,100.00
2023-04-16T06:49:25.449Z,100.00
2023-04-16T06:52:29.652Z,100.00
2023-04-16T06:55:31.975Z,100.00
2023-04-16T06:58:34.700Z,100.00
2023-04-16T07:01:37.368Z,100.00
2023-04-16T07:04:39.993Z,100.00
2023-04-16T07:07:42.391Z,100.00
2023-04-16T07:10:45.532Z,100.00
2023-04-16T07:13:47.966Z,100.00
2023-04-16T07:16:50.794Z,100.00
2023-04-16T07:19:53.339Z,100.00
2023-04-16T07:22:56.165Z,100.00
2023-04-16T07:25:58.558Z,100.00
2023-04-16T07:29:01.394Z,100.00
2023-04-16T07:32:03.794Z,100.00
2023-04-16T07:35:06.972Z,100.00
2023-04-16T07:38:09.396Z,100.00
2023-04-16T07:41:12.084Z,100.00
2023-04-16T07:44:14.479Z,100.00
2023-04-16T07:47:17.251Z,100.00
2023-04-16T07:50:19.964Z,100.00
2023-04-16T07:53:22.809Z,100.00
2023-04-16T07:56:25.249Z,100.00
2023-04-16T07:59:28.252Z,100.00
2023-04-16T08:02:31.248Z,98.37
2023-04-16T08:05:34.079Z,100.00
2023-04-16T08:08:36.556Z,100.00
2023-04-16T08:11:39.357Z,100.00
2023-04-16T08:14:41.767Z,100.00
2023-04-16T08:17:45.002Z,100.00
2023-04-16T08:20:47.566Z,99.73
2023-04-16T08:23:50.320Z,99.71
2023-04-16T08:26:52.738Z,98.06
2023-04-16T08:29:55.605Z,100.00
2023-04-16T08:32:58.231Z,100.00
2023-04-16T08:36:01.059Z,99.80
2023-04-16T08:39:03.766Z,99.39
2023-04-16T08:42:15.007Z,100.00
2023-04-16T08:45:18.745Z,100.00
2023-04-16T08:48:22.323Z,98.74
2023-04-16T08:51:25.244Z,98.71
2023-04-16T08:54:44.899Z,99.51
2023-04-16T08:57:58.879Z,100.00
2023-04-16T09:01:04.680Z,98.98
2023-04-16T09:04:08.765Z,98.61
2023-04-16T09:07:11.982Z,99.15
2023-04-16T09:10:16.261Z,99.16
2023-04-16T09:13:20.764Z,97.58
2023-04-16T09:16:23.923Z,98.70
2023-04-16T09:19:26.703Z,99.86
2023-04-16T09:22:29.140Z,97.30
2023-04-16T09:25:36.667Z,96.04
2023-04-16T09:28:44.056Z,93.89
2023-04-16T09:32:06.527Z,92.79
2023-04-16T09:35:09.614Z,92.98
2023-04-16T09:38:12.312Z,94.75
2023-04-16T09:41:16.798Z,92.40
2023-04-16T09:44:19.537Z,93.33
2023-04-16T09:47:23.114Z,91.30
2023-04-16T09:50:26.796Z,88.06
2023-04-16T09:53:30.972Z,87.89
2023-04-16T09:56:33.783Z,88.20
2023-04-16T09:59:36.650Z,88.54
2023-04-16T10:02:42.831Z,88.15
2023-04-16T10:05:45.648Z,89.88
2023-04-16T10:08:52.965Z,87.98
2023-04-16T10:11:55.650Z,85.70
2023-04-16T10:14:58.523Z,85.15
2023-04-16T10:18:01.155Z,84.25
2023-04-16T10:21:04.362Z,87.17
2023-04-16T10:24:08.472Z,87.73
2023-04-16T10:27:11.394Z,87.83
2023-04-16T10:30:16.166Z,85.11
2023-04-16T10:33:24.265Z,83.95
2023-04-16T10:36:28.186Z,83.46
2023-04-16T10:39:31.025Z,85.38
2023-04-16T10:42:33.845Z,85.01
2023-04-16T10:45:39.753Z,84.54
2023-04-16T10:48:49.864Z,83.12
2023-04-16T10:52:04.938Z,79.84
2023-04-16T10:55:08.012Z,82.99
2023-04-16T10:58:28.606Z,81.99
2023-04-16T11:01:34.366Z,79.93
2023-04-16T11:04:39.715Z,79.32
2023-04-16T11:07:49.598Z,80.69
2023-04-16T11:10:52.916Z,80.49
2023-04-16T11:13:57.016Z,81.19
2023-04-16T11:17:03.919Z,79.04
2023-04-16T11:20:19.316Z,82.44
2023-04-16T11:23:23.243Z,81.52
2023-04-16T11:26:29.514Z,79.94
2023-04-16T11:29:32.274Z,81.66
2023-04-16T11:32:36.427Z,80.92
2023-04-16T11:35:40.659Z,80.79
2023-04-16T11:38:43.256Z,80.75
2023-04-16T11:41:50.781Z,79.54
2023-04-16T11:44:54.881Z,77.93
2023-04-16T11:47:58.236Z,75.79
2023-04-16T11:51:00.707Z,79.29
2023-04-16T11:54:03.461Z,77.92
2023-04-16T11:57:06.364Z,76.16
2023-04-16T12:00:14.211Z,75.58
2023-04-16T12:03:16.970Z,76.53
2023-04-16T12:06:20.176Z,75.09
2023-04-16T12:09:26.503Z,78.02
2023-04-16T12:12:32.113Z,76.79
2023-04-16T12:15:46.456Z,77.78
2023-04-16T12:19:04.235Z,80.68
2023-04-16T12:22:06.849Z,79.36
2023-04-16T12:25:14.583Z,79.40
2023-04-16T12:28:28.133Z,77.44
2023-04-16T12:31:38.218Z,80.03
2023-04-16T12:34:51.658Z,74.10
2023-04-16T12:37:54.476Z,76.54
2023-04-16T12:40:57.883Z,79.04
2023-04-16T12:44:14.419Z,76.40
2023-04-16T12:47:17.112Z,77.78
2023-04-16T12:50:20.136Z,78.66
2023-04-16T12:53:22.914Z,75.59
2023-04-16T12:56:25.832Z,79.92
2023-04-16T12:59:28.330Z,77.65
2023-04-16T13:02:32.495Z,77.55
2023-04-16T13:05:35.137Z,77.84
2023-04-16T13:08:38.307Z,75.32
2023-04-16T13:11:41.139Z,77.16
2023-04-16T13:14:45.218Z,76.25
2023-04-16T13:17:47.859Z,76.08
2023-04-16T13:20:50.784Z,77.56
2023-04-16T13:23:54.357Z,72.26
2023-04-16T13:26:57.992Z,74.67
2023-04-16T13:30:00.668Z,71.06
2023-04-16T13:33:03.842Z,69.79
2023-04-16T13:36:07.369Z,66.52
2023-04-16T13:39:12.144Z,67.56
2023-04-16T13:42:15.202Z,70.12
2023-04-16T13:45:20.710Z,70.86
2023-04-16T13:48:23.428Z,69.39
2023-04-16T13:51:27.752Z,69.96
2023-04-16T13:54:30.197Z,70.95
2023-04-16T13:57:33.279Z,69.03
2023-04-16T14:00:36.621Z,68.60
2023-04-16T14:03:41.123Z,69.45
2023-04-16T14:06:43.572Z,67.00
2023-04-16T14:09:46.673Z,70.28
2023-04-16T14:12:49.337Z,68.67
2023-04-16T14:15:56.458Z,69.10
2023-04-16T14:18:58.912Z,68.36
2023-04-16T14:22:02.085Z,70.82
2023-04-16T14:25:05.406Z,68.00
2023-04-16T14:28:09.704Z,69.96
2023-04-16T14:31:12.324Z,70.88
2023-04-16T14:34:17.399Z,68.57
2023-04-16T14:37:20.551Z,67.69
2023-04-16T14:40:23.656Z,62.91
2023-04-16T14:43:26.826Z,65.74
2023-04-16T14:46:30.914Z,69.05
2023-04-16T14:49:34.055Z,61.48
2023-04-16T14:52:36.805Z,63.04
2023-04-16T14:55:39.428Z,60.77
2023-04-16T14:58:43.587Z,67.91
2023-04-16T15:01:46.580Z,65.97
2023-04-16T15:04:50.103Z,67.96
2023-04-16T15:07:53.053Z,66.65
2023-04-16T15:10:56.574Z,69.65
2023-04-16T15:13:59.176Z,65.82
2023-04-16T15:17:02.297Z,66.19
2023-04-16T15:20:08.463Z,66.45
2023-04-16T15:23:11.377Z,65.11
2023-04-16T15:26:14.507Z,67.29
2023-04-16T15:29:18.874Z,66.77
2023-04-16T15:32:22.124Z,67.08
2023-04-16T15:35:25.924Z,66.37
2023-04-16T15:38:30.991Z,67.47
2023-04-16T15:41:37.046Z,69.92
2023-04-16T15:44:40.913Z,69.76
2023-04-16T15:47:48.663Z,68.28
2023-04-16T15:50:53.527Z,69.02
2023-04-16T15:53:58.004Z,68.69
2023-04-16T15:57:01.021Z,68.77
2023-04-16T16:00:19.266Z,66.45
2023-04-16T16:03:23.117Z,71.05
2023-04-16T16:06:27.887Z,68.95
2023-04-16T16:09:31.402Z,65.55
2023-04-16T16:12:35.642Z,70.52
2023-04-16T16:15:43.024Z,69.31
2023-04-16T16:18:46.691Z,68.90
2023-04-16T16:21:49.901Z,69.59
2023-04-16T16:25:00.914Z,69.44
2023-04-16T16:28:06.964Z,71.51
2023-04-16T16:31:12.857Z,69.47
2023-04-16T16:34:20.757Z,70.42
2023-04-16T16:37:25.017Z,73.93
2023-04-16T16:40:29.115Z,73.60
2023-04-16T16:43:33.544Z,71.90
2023-04-16T16:46:37.831Z,75.39
2023-04-16T16:49:41.701Z,73.25
2023-04-16T16:52:46.745Z,75.99
2023-04-16T16:55:52.295Z,75.68
2023-04-16T16:58:56.053Z,74.43
2023-04-16T17:02:00.493Z,76.93
2023-04-16T17:05:06.562Z,74.65
2023-04-16T17:08:12.867Z,77.13
2023-04-16T17:11:16.986Z,77.01
2023-04-16T17:14:21.578Z,77.50
2023-04-16T17:17:24.785Z,77.43
2023-04-16T17:20:30.368Z,78.14
2023-04-16T17:23:34.191Z,77.77
2023-04-16T17:26:38.193Z,79.08
2023-04-16T17:29:41.636Z,78.49
2023-04-16T17:32:45.723Z,79.49
2023-04-16T17:35:49.351Z,79.50
2023-04-16T17:38:54.769Z,79.75
2023-04-16T17:42:05.144Z,81.38
2023-04-16T17:45:09.635Z,80.27
2023-04-16T17:48:14.553Z,81.51
2023-04-16T17:51:18.446Z,81.32
2023-04-16T17:54:21.692Z,81.61
2023-04-16T17:57:27.079Z,83.25
2023-04-16T18:00:32.400Z,82.17
2023-04-16T18:03:37.867Z,82.49
2023-04-16T18:06:41.531Z,82.47
2023-04-16T18:09:47.406Z,82.17
2023-04-16T18:12:55.133Z,81.83
2023-04-16T18:16:03.491Z,82.38
2023-04-16T18:19:08.014Z,82.02
2023-04-16T18:22:13.899Z,82.51
2023-04-16T18:25:17.108Z,82.39
2023-04-16T18:28:21.306Z,82.61
2023-04-16T18:31:25.231Z,82.41
2023-04-16T18:34:31.311Z,83.33
2023-04-16T18:37:36.803Z,83.51
2023-04-16T18:40:42.698Z,84.28
2023-04-16T18:43:47.650Z,84.46
2023-04-16T18:46:51.598Z,84.55
2023-04-16T18:49:57.920Z,84.33
2023-04-16T18:53:02.615Z,84.78
2023-04-16T18:56:06.399Z,84.48
2023-04-16T18:59:12.168Z,85.12
2023-04-16T19:02:17.720Z,84.71
2023-04-16T19:05:24.992Z,84.53
2023-04-16T19:08:28.856Z,84.95
2023-04-16T19:11:38.425Z,85.67
2023-04-16T19:14:42.015Z,85.38
2023-04-16T19:17:46.226Z,85.53
2023-04-16T19:20:51.295Z,86.24
2023-04-16T19:23:57.275Z,86.52
2023-04-16T19:27:01.944Z,87.19
2023-04-16T19:30:08.216Z,87.47
2023-04-16T19:33:12.284Z,87.63
2023-04-16T19:36:17.068Z,87.89
2023-04-16T19:39:21.694Z,87.88
2023-04-16T19:42:25.929Z,87.64
2023-04-16T19:45:29.971Z,88.18
2023-04-16T19:48:34.022Z,88.06
2023-04-16T19:51:37.669Z,89.00
2023-04-16T19:54:42.843Z,89.39
2023-04-16T19:57:48.412Z,89.50
2023-04-16T20:00:53.027Z,90.07
2023-04-16T20:03:57.249Z,90.55
2023-04-16T20:07:01.344Z,90.23
2023-04-16T20:10:05.153Z,90.83
2023-04-16T20:13:12.363Z,91.71
2023-04-16T20:16:18.229Z,93.31
2023-04-16T20:19:22.323Z,93.25
2023-04-16T20:22:25.919Z,93.10
2023-04-16T20:25:29.861Z,93.73
2023-04-16T20:28:33.249Z,93.68
2023-04-16T20:31:37.319Z,93.79
2023-04-16T20:34:41.408Z,94.49
2023-04-16T20:37:45.108Z,94.74
2023-04-16T20:40:47.644Z,95.15
2023-04-16T20:43:53.592Z,95.25
2023-04-16T20:46:57.339Z,95.59
2023-04-16T20:50:02.032Z,95.40
2023-04-16T20:53:05.163Z,95.94
2023-04-16T20:56:09.303Z,96.02
2023-04-16T20:59:13.582Z,96.20
2023-04-16T21:02:16.895Z,97.04
2023-04-16T21:05:21.593Z,96.94
2023-04-16T21:08:24.923Z,96.70
2023-04-16T21:11:29.519Z,96.60
2023-04-16T21:14:32.607Z,96.80
2023-04-16T21:17:35.159Z,96.62
2023-04-16T21:20:39.439Z,96.32
2023-04-16T21:23:41.999Z,96.21
2023-04-16T21:26:44.874Z,95.37
2023-04-16T21:29:47.553Z,95.66
2023-04-16T21:32:50.851Z,95.58
2023-04-16T21:35:53.891Z,96.19
2023-04-16T21:38:56.768Z,95.74
2023-04-16T21:41:59.324Z,96.94
2023-04-16T21:45:02.279Z,97.05
2023-04-16T21:48:05.197Z,97.21
2023-04-16T21:51:08.478Z,98.31
2023-04-16T21:54:11.101Z,98.69
2023-04-16T21:57:13.981Z,98.98
2023-04-16T22:00:17.737Z,99.03
2023-04-16T22:03:26.663Z,99.68
2023-04-16T22:06:29.442Z,99.99
2023-04-16T22:09:35.673Z,99.82
2023-04-16T22:12:38.116Z,99.74
2023-04-16T22:15:41.589Z,99.35
2023-04-16T22:18:44.054Z,98.79
2023-04-16T22:21:48.128Z,98.97
2023-04-16T22:24:50.597Z,99.49
2023-04-16T22:27:53.391Z,98.54
2023-04-16T22:30:56.737Z,98.42
2023-04-16T22:34:00.591Z,98.39
2023-04-16T22:37:04.866Z,98.51
2023-04-16T22:40:11.877Z,98.45
2023-04-16T22:43:14.421Z,97.32
2023-04-16T22:46:20.019Z,97.23
2023-04-16T22:49:22.648Z,97.62
2023-04-16T22:52:25.923Z,97.47
2023-04-16T22:55:28.314Z,97.08
2023-04-16T22:58:31.712Z,96.90
2023-04-16T23:01:35.385Z,96.07
2023-04-16T23:04:38.760Z,94.86
2023-04-16T23:07:41.704Z,93.19
2023-04-16T23:10:44.650Z,93.52
2023-04-16T23:13:47.294Z,94.31
2023-04-16T23:16:50.739Z,95.06
2023-04-16T23:19:53.438Z,96.76
2023-04-16T23:22:56.424Z,97.60
2023-04-16T23:25:59.070Z,96.88
2023-04-16T23:29:02.127Z,95.35
2023-04-16T23:32:04.781Z,94.86
2023-04-16T23:35:08.197Z,95.92
2023-04-16T23:38:10.885Z,95.50
2023-04-16T23:41:13.600Z,94.94
2023-04-16T23:44:16.828Z,93.86
2023-04-16T23:47:19.844Z,94.20
2023-04-16T23:50:22.395Z,95.40
2023-04-16T23:53:25.833Z,95.69
2023-04-16T23:56:28.402Z,95.92
2023-04-16T23:59:31.666Z,97.60
